Terminal Aerodrome Forecast
Issued by NWS Sterling, VA

Home | Current Version | Previous Version | Text Only | Print | Product List | Glossary On
Versions: 1 2 3 4 5 6 7 8 9 10 11 12 13 14 15
000
FTUS41 KLWX 281100
TAFMRB
TAF
KMRB 281139Z 2812/2912 00000KT P6SM OVC080
     FM281600 31004KT 5SM -SHRA OVC040
     FM281900 32005KT 6SM -SHRA OVC045
     FM290000 33006KT P6SM OVC025
     FM290500 33006KT P6SM OVC035=

USA.gov is the U.S. government's official web portal to all federal, state and local government web resources and services.